createdAt,value
2023-01-11T00:00:14.153Z,1
2023-01-11T00:01:14.161Z,1
2023-01-11T00:02:14.201Z,1
2023-01-11T00:03:14.158Z,1
2023-01-11T00:04:14.218Z,1
2023-01-11T00:05:14.283Z,1
2023-01-11T00:06:14.163Z,1
2023-01-11T00:07:14.183Z,1
2023-01-11T00:08:14.169Z,0
2023-01-11T00:09:14.164Z,1
2023-01-11T00:10:14.161Z,1
2023-01-11T00:11:14.164Z,1
2023-01-11T00:12:14.190Z,1
2023-01-11T00:13:14.179Z,1
2023-01-11T00:14:14.150Z,0
2023-01-11T00:15:14.191Z,1
2023-01-11T00:16:14.240Z,1
2023-01-11T00:17:14.175Z,1
2023-01-11T00:18:14.154Z,1
2023-01-11T00:19:14.167Z,1
2023-01-11T00:20:14.152Z,1
2023-01-11T00:21:14.170Z,1
2023-01-11T00:22:14.209Z,1
2023-01-11T00:23:14.158Z,1
2023-01-11T00:24:14.154Z,1
2023-01-11T00:25:14.162Z,1
2023-01-11T00:26:14.164Z,1
2023-01-11T00:27:14.197Z,1
2023-01-11T00:28:14.155Z,1
2023-01-11T00:29:14.143Z,0
2023-01-11T00:30:14.212Z,1
2023-01-11T00:31:14.198Z,0
2023-01-11T00:32:14.181Z,1
2023-01-11T00:33:14.228Z,0
2023-01-11T00:34:14.162Z,1
2023-01-11T00:35:14.156Z,1
2023-01-11T00:36:14.189Z,1
2023-01-11T00:37:14.187Z,0
2023-01-11T00:38:14.176Z,1
2023-01-11T00:39:14.147Z,1
2023-01-11T00:40:14.195Z,0
2023-01-11T00:41:14.156Z,1
2023-01-11T00:42:14.175Z,1
2023-01-11T00:43:14.154Z,1
2023-01-11T00:44:14.151Z,1
2023-01-11T00:45:14.156Z,1
2023-01-11T00:46:14.286Z,1
2023-01-11T00:47:14.179Z,1
2023-01-11T00:48:14.140Z,1
2023-01-11T00:49:14.154Z,1
2023-01-11T00:50:14.153Z,1
2023-01-11T00:51:14.153Z,1
2023-01-11T00:52:14.159Z,1
2023-01-11T00:53:14.183Z,0
2023-01-11T00:54:14.174Z,1
2023-01-11T00:55:14.200Z,1
2023-01-11T00:56:14.474Z,1
2023-01-11T00:57:14.177Z,1
2023-01-11T00:58:14.155Z,1
2023-01-11T00:59:14.156Z,0
2023-01-11T01:00:14.158Z,1
2023-01-11T01:01:14.188Z,1
2023-01-11T01:02:14.188Z,1
2023-01-11T01:03:14.150Z,1
2023-01-11T01:04:14.143Z,1
2023-01-11T01:05:14.150Z,1
2023-01-11T01:06:14.160Z,1
2023-01-11T01:07:14.208Z,1
2023-01-11T01:08:14.152Z,0
2023-01-11T01:09:14.155Z,1
2023-01-11T01:10:14.166Z,1
2023-01-11T01:11:14.153Z,0
2023-01-11T01:12:14.180Z,0
2023-01-11T01:13:14.165Z,1
2023-01-11T01:14:14.152Z,1
2023-01-11T01:15:14.159Z,0
2023-01-11T01:16:14.242Z,0
2023-01-11T01:17:14.189Z,1
2023-01-11T01:18:24.171Z,1
2023-01-11T01:19:14.159Z,1
2023-01-11T01:20:14.162Z,0
2023-01-11T01:21:14.172Z,0
2023-01-11T01:22:14.174Z,1
2023-01-11T01:23:14.155Z,1
2023-01-11T01:24:14.186Z,0
2023-01-11T01:25:14.161Z,1
2023-01-11T01:26:14.163Z,1
2023-01-11T01:27:14.172Z,1
2023-01-11T01:28:14.174Z,1
2023-01-11T01:29:14.167Z,0
2023-01-11T01:30:14.160Z,1
2023-01-11T01:31:14.253Z,1
2023-01-11T01:32:14.183Z,1
2023-01-11T01:33:14.162Z,0
2023-01-11T01:34:14.156Z,1
2023-01-11T01:35:14.167Z,0
2023-01-11T01:36:14.169Z,0
2023-01-11T01:37:14.327Z,1
2023-01-11T01:38:14.170Z,1
2023-01-11T01:39:14.163Z,0
2023-01-11T01:40:14.162Z,1
2023-01-11T01:41:14.159Z,1
2023-01-11T01:42:14.146Z,0
2023-01-11T01:43:14.166Z,1
2023-01-11T01:44:14.166Z,1
2023-01-11T01:45:14.175Z,1
2023-01-11T01:46:14.234Z,1
2023-01-11T01:47:14.169Z,0
2023-01-11T01:48:14.162Z,0
2023-01-11T01:49:14.150Z,1
2023-01-11T01:50:14.153Z,0
2023-01-11T01:51:14.145Z,0
2023-01-11T01:52:14.151Z,1
2023-01-11T01:53:14.171Z,0
2023-01-11T01:54:14.163Z,0
2023-01-11T01:55:14.155Z,1
2023-01-11T01:56:14.145Z,0
2023-01-11T01:57:14.158Z,1
2023-01-11T01:58:14.180Z,1
2023-01-11T01:59:14.151Z,0
2023-01-11T02:00:14.151Z,0
2023-01-11T02:01:14.171Z,1
2023-01-11T02:02:14.170Z,1
2023-01-11T02:03:14.224Z,0
2023-01-11T02:04:14.154Z,1
2023-01-11T02:05:14.152Z,0
2023-01-11T02:06:14.171Z,0
2023-01-11T02:07:14.176Z,1
2023-01-11T02:08:14.165Z,1
2023-01-11T02:09:14.189Z,0
2023-01-11T02:10:14.161Z,0
2023-01-11T02:11:14.159Z,0
2023-01-11T02:12:14.146Z,0
2023-01-11T02:13:14.171Z,0
2023-01-11T02:14:14.199Z,1
2023-01-11T02:15:14.163Z,1
2023-01-11T02:16:14.255Z,0
2023-01-11T02:17:14.154Z,0
2023-01-11T02:18:30.453Z,1
2023-01-11T02:19:14.169Z,0
2023-01-11T02:20:14.157Z,1
2023-01-11T02:21:14.156Z,0
2023-01-11T02:22:14.155Z,0
2023-01-11T02:23:14.145Z,1
2023-01-11T02:24:14.148Z,1
2023-01-11T02:25:14.160Z,0
2023-01-11T02:26:14.150Z,1
2023-01-11T02:27:14.217Z,0
2023-01-11T02:28:14.155Z,1
2023-01-11T02:29:14.155Z,0
2023-01-11T02:30:14.183Z,0
2023-01-11T02:31:14.248Z,0
2023-01-11T02:32:14.171Z,1
2023-01-11T02:33:14.165Z,0
2023-01-11T02:34:14.174Z,1
2023-01-11T02:35:14.159Z,0
2023-01-11T02:36:14.279Z,1
2023-01-11T02:37:14.168Z,0
2023-01-11T02:38:14.161Z,0
2023-01-11T02:39:14.157Z,0
2023-01-11T02:40:14.186Z,0
2023-01-11T02:41:14.163Z,0
2023-01-11T02:42:14.177Z,0
2023-01-11T02:43:14.172Z,1
2023-01-11T02:44:14.155Z,0
2023-01-11T02:45:14.175Z,0
2023-01-11T02:46:14.202Z,0
2023-01-11T02:47:14.181Z,0
2023-01-11T02:48:14.158Z,0
2023-01-11T02:49:14.171Z,0
2023-01-11T02:50:14.197Z,1
2023-01-11T02:51:14.180Z,0
2023-01-11T02:52:14.181Z,1
2023-01-11T02:53:14.166Z,0
2023-01-11T02:54:14.159Z,0
2023-01-11T02:55:14.159Z,0
2023-01-11T02:56:14.155Z,0
2023-01-11T02:57:14.155Z,0
2023-01-11T02:58:14.172Z,0
2023-01-11T02:59:14.183Z,0
2023-01-11T03:00:14.148Z,0
2023-01-11T03:01:14.157Z,0
2023-01-11T03:02:14.175Z,0
2023-01-11T03:03:14.224Z,1
2023-01-11T03:04:14.190Z,1
2023-01-11T03:05:14.162Z,0
2023-01-11T03:06:14.170Z,0
2023-01-11T03:07:14.161Z,0
2023-01-11T03:08:14.159Z,0
2023-01-11T03:09:14.155Z,0
2023-01-11T03:10:14.170Z,0
2023-01-11T03:11:14.214Z,1
2023-01-11T03:12:14.201Z,1
2023-01-11T03:13:14.195Z,1
2023-01-11T03:14:14.165Z,0
2023-01-11T03:15:14.147Z,0
2023-01-11T03:16:14.193Z,0
2023-01-11T03:17:14.209Z,0
2023-01-11T03:18:36.510Z,1
2023-01-11T03:19:14.149Z,0
2023-01-11T03:20:14.152Z,1
2023-01-11T03:21:14.188Z,1
2023-01-11T03:22:14.166Z,1
2023-01-11T03:23:14.149Z,1
2023-01-11T03:24:14.144Z,0
2023-01-11T03:25:14.154Z,0
2023-01-11T03:26:14.158Z,1
2023-01-11T03:27:14.161Z,0
2023-01-11T03:28:14.240Z,1
2023-01-11T03:29:14.171Z,0
2023-01-11T03:30:14.164Z,0
2023-01-11T03:31:14.236Z,1
2023-01-11T03:32:14.167Z,0
2023-01-11T03:33:14.156Z,1
2023-01-11T03:34:14.203Z,0
2023-01-11T03:35:14.152Z,0
2023-01-11T03:36:14.150Z,0
2023-01-11T03:37:14.159Z,0
2023-01-11T03:38:14.152Z,0
2023-01-11T03:39:14.164Z,0
2023-01-11T03:40:14.188Z,0
2023-01-11T03:41:14.158Z,0
2023-01-11T03:42:14.191Z,0
2023-01-11T03:43:14.177Z,0
2023-01-11T03:44:14.169Z,1
2023-01-11T03:45:14.161Z,0
2023-01-11T03:46:14.185Z,1
2023-01-11T03:47:14.200Z,0
2023-01-11T03:48:14.169Z,0
2023-01-11T03:49:14.168Z,0
2023-01-11T03:50:14.165Z,0
2023-01-11T03:51:14.189Z,1
2023-01-11T03:52:14.150Z,0
2023-01-11T03:53:14.165Z,0
2023-01-11T03:54:14.163Z,0
2023-01-11T03:55:14.229Z,0
2023-01-11T03:56:14.154Z,1
2023-01-11T03:57:14.158Z,0
2023-01-11T03:58:14.161Z,0
2023-01-11T03:59:14.177Z,1
2023-01-11T04:00:14.161Z,0
2023-01-11T04:01:14.208Z,0
2023-01-11T04:02:14.144Z,1
2023-01-11T04:03:14.156Z,0
2023-01-11T04:04:14.224Z,0
2023-01-11T04:05:14.160Z,0
2023-01-11T04:06:14.161Z,0
2023-01-11T04:07:14.167Z,1
2023-01-11T04:08:14.151Z,0
2023-01-11T04:09:14.170Z,0
2023-01-11T04:10:14.150Z,0
2023-01-11T04:11:14.165Z,0
2023-01-11T04:12:14.169Z,1
2023-01-11T04:13:14.177Z,0
2023-01-11T04:14:14.202Z,1
2023-01-11T04:15:14.170Z,1
2023-01-11T04:16:14.220Z,0
2023-01-11T04:17:14.194Z,0
2023-01-11T04:19:14.185Z,0
2023-01-11T04:20:14.159Z,0
2023-01-11T04:21:14.155Z,0
2023-01-11T04:22:14.193Z,1
2023-01-11T04:23:14.164Z,0
2023-01-11T04:24:14.179Z,0
2023-01-11T04:25:14.145Z,1
2023-01-11T04:26:14.163Z,0
2023-01-11T04:27:14.173Z,1
2023-01-11T04:28:14.161Z,1
2023-01-11T04:29:14.173Z,1
2023-01-11T04:30:14.204Z,1
2023-01-11T04:31:14.446Z,1
2023-01-11T04:32:14.521Z,0
2023-01-11T04:33:14.368Z,1
2023-01-11T04:34:14.461Z,1
2023-01-11T04:35:14.153Z,1
2023-01-11T04:36:14.161Z,1
2023-01-11T04:37:14.167Z,1
2023-01-11T04:38:14.163Z,1
2023-01-11T04:39:14.191Z,1
2023-01-11T04:40:14.154Z,0
2023-01-11T04:41:14.155Z,1
2023-01-11T04:42:14.173Z,1
2023-01-11T04:43:14.167Z,1
2023-01-11T04:44:14.205Z,1
2023-01-11T04:45:14.147Z,1
2023-01-11T04:46:14.168Z,1
2023-01-11T04:47:14.197Z,0
2023-01-11T04:48:14.157Z,0
2023-01-11T04:49:14.178Z,0
2023-01-11T04:50:14.200Z,1
2023-01-11T04:51:14.169Z,1
2023-01-11T04:52:14.200Z,0
2023-01-11T04:53:14.181Z,0
2023-01-11T04:54:14.192Z,0
2023-01-11T04:55:14.169Z,0
2023-01-11T04:56:14.445Z,0
2023-01-11T04:57:14.203Z,0
2023-01-11T04:58:14.151Z,0
2023-01-11T04:59:14.189Z,0
2023-01-11T05:00:14.167Z,1
2023-01-11T05:01:14.276Z,0
2023-01-11T05:02:14.193Z,1
2023-01-11T05:03:14.154Z,0
2023-01-11T05:04:14.241Z,1
2023-01-11T05:05:14.169Z,1
2023-01-11T05:06:14.174Z,0
2023-01-11T05:07:14.155Z,1
2023-01-11T05:08:14.180Z,1
2023-01-11T05:09:14.190Z,1
2023-01-11T05:11:14.164Z,1
2023-01-11T05:12:14.149Z,1
2023-01-11T05:13:14.162Z,0
2023-01-11T05:14:14.156Z,1
2023-01-11T05:15:14.204Z,1
2023-01-11T05:16:14.271Z,1
2023-01-11T05:17:14.190Z,1
2023-01-11T05:18:14.185Z,1
2023-01-11T05:19:14.196Z,0
2023-01-11T05:20:14.177Z,1
2023-01-11T05:21:14.174Z,1
2023-01-11T05:22:14.165Z,1
2023-01-11T05:23:14.154Z,0
2023-01-11T05:24:14.153Z,1
2023-01-11T05:25:14.172Z,1
2023-01-11T05:26:14.161Z,1
2023-01-11T05:27:14.170Z,1
2023-01-11T05:28:14.157Z,1
2023-01-11T05:29:14.167Z,1
2023-01-11T05:30:14.194Z,1
2023-01-11T05:31:14.159Z,1
2023-01-11T05:32:14.162Z,1
2023-01-11T05:33:14.180Z,1
2023-01-11T05:34:14.149Z,1
2023-01-11T05:35:14.177Z,1
2023-01-11T05:36:14.161Z,1
2023-01-11T05:37:14.179Z,1
2023-01-11T05:38:14.155Z,1
2023-01-11T05:39:14.164Z,1
2023-01-11T05:40:14.186Z,1
2023-01-11T05:41:14.159Z,1
2023-01-11T05:42:14.161Z,1
2023-01-11T05:43:14.155Z,1
2023-01-11T05:44:14.178Z,1
2023-01-11T05:45:14.272Z,1
2023-01-11T05:46:14.243Z,1
2023-01-11T05:47:14.152Z,1
2023-01-11T05:48:14.174Z,1
2023-01-11T05:49:14.182Z,1
2023-01-11T05:50:14.168Z,1
2023-01-11T05:51:14.164Z,1
2023-01-11T05:52:14.159Z,1
2023-01-11T05:53:14.168Z,1
2023-01-11T05:54:14.154Z,1
2023-01-11T05:55:14.183Z,1
2023-01-11T05:56:14.173Z,1
2023-01-11T05:57:14.173Z,1
2023-01-11T05:58:14.178Z,1
2023-01-11T05:59:14.167Z,1
2023-01-11T06:00:14.185Z,1
2023-01-11T06:01:14.157Z,1
2023-01-11T06:02:14.222Z,1
2023-01-11T06:03:14.250Z,1
2023-01-11T06:04:14.176Z,1
2023-01-11T06:05:14.163Z,1
2023-01-11T06:06:14.159Z,1
2023-01-11T06:07:14.170Z,1
2023-01-11T06:08:14.163Z,1
2023-01-11T06:09:14.153Z,1
2023-01-11T06:10:14.165Z,1
2023-01-11T06:11:14.155Z,1
2023-01-11T06:12:14.166Z,1
2023-01-11T06:13:14.155Z,1
2023-01-11T06:14:14.150Z,1
2023-01-11T06:15:14.194Z,1
2023-01-11T06:16:14.226Z,1
2023-01-11T06:17:14.200Z,1
2023-01-11T06:18:14.180Z,1
2023-01-11T06:19:14.175Z,1
2023-01-11T06:20:14.190Z,1
2023-01-11T06:21:14.189Z,1
2023-01-11T06:22:14.155Z,1
2023-01-11T06:23:14.162Z,1
2023-01-11T06:24:14.161Z,1
2023-01-11T06:25:14.250Z,1
2023-01-11T06:26:14.178Z,1
2023-01-11T06:27:14.167Z,1
2023-01-11T06:28:14.168Z,1
2023-01-11T06:29:14.159Z,1
2023-01-11T06:30:14.188Z,1
2023-01-11T06:31:16.175Z,1
2023-01-11T06:33:14.222Z,1
2023-01-11T06:34:14.156Z,1
2023-01-11T06:35:14.182Z,1
2023-01-11T06:36:14.174Z,1
2023-01-11T06:37:14.160Z,1
2023-01-11T06:38:14.165Z,1
2023-01-11T06:39:24.171Z,1
2023-01-11T06:40:14.184Z,1
2023-01-11T06:41:14.184Z,1
2023-01-11T06:42:14.304Z,1
2023-01-11T06:43:14.174Z,1
2023-01-11T06:44:14.166Z,1
2023-01-11T06:45:14.171Z,1
2023-01-11T06:46:14.291Z,1
2023-01-11T06:47:14.159Z,1
2023-01-11T06:48:14.206Z,1
2023-01-11T06:49:14.188Z,1
2023-01-11T06:50:14.154Z,1
2023-01-11T06:51:14.171Z,1
2023-01-11T06:52:14.159Z,1
2023-01-11T06:53:14.176Z,1
2023-01-11T06:54:14.225Z,1
2023-01-11T06:55:14.169Z,1
2023-01-11T06:56:14.233Z,1
2023-01-11T06:57:14.167Z,1
2023-01-11T06:58:14.163Z,1
2023-01-11T06:59:14.209Z,1
2023-01-11T07:00:14.170Z,1
2023-01-11T07:01:14.341Z,1
2023-01-11T07:02:14.165Z,1
2023-01-11T07:03:14.178Z,1
2023-01-11T07:04:14.168Z,1
2023-01-11T07:05:14.236Z,0
2023-01-11T07:06:14.189Z,1
2023-01-11T07:07:14.183Z,1
2023-01-11T07:08:14.175Z,1
2023-01-11T07:09:14.171Z,0
2023-01-11T07:10:14.186Z,1
2023-01-11T07:11:14.252Z,1
2023-01-11T07:12:14.157Z,0
2023-01-11T07:13:14.162Z,1
2023-01-11T07:14:14.166Z,1
2023-01-11T07:15:14.193Z,1
2023-01-11T07:16:14.276Z,1
2023-01-11T07:17:14.301Z,1
2023-01-11T07:18:14.498Z,1
2023-01-11T07:19:14.202Z,1
2023-01-11T07:20:14.194Z,0
2023-01-11T07:21:14.254Z,1
2023-01-11T07:22:14.168Z,1
2023-01-11T07:23:14.186Z,0
2023-01-11T07:24:14.192Z,0
2023-01-11T07:25:14.155Z,1
2023-01-11T07:26:14.654Z,1
2023-01-11T07:27:14.195Z,0
2023-01-11T07:28:14.171Z,0
2023-01-11T07:29:14.180Z,0
2023-01-11T07:30:14.255Z,1
2023-01-11T07:31:14.212Z,0
2023-01-11T07:32:14.172Z,1
2023-01-11T07:33:14.195Z,0
2023-01-11T07:34:14.180Z,0
2023-01-11T07:35:14.169Z,0
2023-01-11T07:37:28.621Z,0
2023-01-11T07:38:14.185Z,0
2023-01-11T07:39:42.909Z,0
2023-01-11T07:40:14.186Z,0
2023-01-11T07:41:14.200Z,1
2023-01-11T07:42:15.321Z,0
2023-01-11T07:43:14.172Z,1
2023-01-11T07:44:14.178Z,0
2023-01-11T07:45:14.173Z,1
2023-01-11T07:46:14.346Z,1
2023-01-11T07:48:14.174Z,0
2023-01-11T07:49:14.180Z,0
2023-01-11T07:50:14.207Z,1
2023-01-11T07:51:14.183Z,1
2023-01-11T07:52:14.167Z,9
2023-01-11T07:53:14.191Z,10
2023-01-11T07:54:14.180Z,9
2023-01-11T07:55:14.173Z,13
2023-01-11T07:56:14.219Z,5
2023-01-11T07:57:14.159Z,3
2023-01-11T07:58:14.159Z,2
2023-01-11T07:59:14.188Z,2
2023-01-11T08:00:14.181Z,2
2023-01-11T08:01:14.188Z,4
2023-01-11T08:02:14.175Z,7
2023-01-11T08:03:14.336Z,3
2023-01-11T08:04:14.158Z,2
2023-01-11T08:05:14.236Z,3
2023-01-11T08:06:14.197Z,2
2023-01-11T08:07:14.175Z,2
2023-01-11T08:08:14.205Z,2
2023-01-11T08:09:14.180Z,2
2023-01-11T08:10:14.177Z,2
2023-01-11T08:11:14.213Z,2
2023-01-11T08:12:14.193Z,1
2023-01-11T08:13:14.174Z,1
2023-01-11T08:14:14.169Z,2
2023-01-11T08:15:14.200Z,2
2023-01-11T08:16:14.233Z,1
2023-01-11T08:17:14.203Z,1
2023-01-11T08:18:14.207Z,1
2023-01-11T08:19:14.173Z,1
2023-01-11T08:20:14.169Z,1
2023-01-11T08:22:14.231Z,1
2023-01-11T08:23:14.175Z,1
2023-01-11T08:24:14.179Z,1
2023-01-11T08:25:14.181Z,1
2023-01-11T08:26:14.165Z,1
2023-01-11T08:27:14.229Z,1
2023-01-11T08:28:14.187Z,1
2023-01-11T08:29:14.187Z,0
2023-01-11T08:30:14.166Z,1
2023-01-11T08:31:14.236Z,1
2023-01-11T08:32:14.207Z,1
2023-01-11T08:33:14.189Z,1
2023-01-11T08:34:14.175Z,1
2023-01-11T08:35:14.180Z,1
2023-01-11T08:36:14.208Z,1
2023-01-11T08:37:14.215Z,1
2023-01-11T08:38:14.166Z,1
2023-01-11T08:39:36.461Z,1
2023-01-11T08:40:14.186Z,1
2023-01-11T08:41:14.171Z,1
2023-01-11T08:42:14.231Z,1
2023-01-11T08:43:14.176Z,1
2023-01-11T08:44:15.055Z,1
2023-01-11T08:45:14.187Z,1
2023-01-11T08:46:14.208Z,1
2023-01-11T08:47:14.218Z,1
2023-01-11T08:48:14.166Z,1
2023-01-11T08:49:14.198Z,1
2023-01-11T08:50:14.201Z,1
2023-01-11T08:51:14.185Z,1
2023-01-11T08:52:14.193Z,1
2023-01-11T08:53:14.172Z,1
2023-01-11T08:54:14.182Z,1
2023-01-11T08:55:14.201Z,1
2023-01-11T08:57:14.193Z,1
2023-01-11T08:58:14.177Z,1
2023-01-11T08:59:14.161Z,1
2023-01-11T09:00:14.180Z,1
2023-01-11T09:01:14.207Z,1
2023-01-11T09:02:14.201Z,1
2023-01-11T09:03:14.286Z,1
2023-01-11T09:04:24.221Z,1
2023-01-11T09:06:14.207Z,1
2023-01-11T09:07:14.195Z,1
2023-01-11T09:08:14.194Z,1
2023-01-11T09:09:14.180Z,1
2023-01-11T09:10:14.192Z,1
2023-01-11T09:11:14.178Z,1
2023-01-11T09:12:14.195Z,1
2023-01-11T09:13:14.175Z,1
2023-01-11T09:14:14.191Z,1
2023-01-11T09:15:14.173Z,1
2023-01-11T09:16:14.225Z,1
2023-01-11T09:17:14.207Z,1
2023-01-11T09:18:14.174Z,1
2023-01-11T09:19:14.178Z,1
2023-01-11T09:20:14.186Z,1
2023-01-11T09:21:14.311Z,1
2023-01-11T09:22:14.196Z,1
2023-01-11T09:23:14.179Z,1
2023-01-11T09:24:14.200Z,1
2023-01-11T09:25:14.188Z,1
2023-01-11T09:26:14.171Z,1
2023-01-11T09:27:14.272Z,1
2023-01-11T09:28:14.256Z,1
2023-01-11T09:29:14.284Z,1
2023-01-11T09:30:14.165Z,1
2023-01-11T09:31:14.289Z,1
2023-01-11T09:32:14.178Z,1
2023-01-11T09:33:14.200Z,1
2023-01-11T09:34:14.197Z,1
2023-01-11T09:35:14.183Z,1
2023-01-11T09:36:14.172Z,1
2023-01-11T09:37:14.179Z,1
2023-01-11T09:38:14.191Z,1
2023-01-11T09:40:14.204Z,1
2023-01-11T09:41:14.191Z,1
2023-01-11T09:42:14.186Z,1
2023-01-11T09:43:14.251Z,1
2023-01-11T09:44:14.177Z,1
2023-01-11T09:45:14.292Z,1
2023-01-11T09:46:14.220Z,1
2023-01-11T09:48:14.179Z,1
2023-01-11T09:49:14.187Z,1
2023-01-11T09:50:14.186Z,1
2023-01-11T09:51:14.311Z,1
2023-01-11T09:52:14.171Z,1
2023-01-11T09:53:14.188Z,1
2023-01-11T09:54:14.186Z,1
2023-01-11T09:55:14.215Z,1
2023-01-11T09:56:14.180Z,1
2023-01-11T09:57:14.204Z,1
2023-01-11T09:58:14.192Z,1
2023-01-11T09:59:14.180Z,1
2023-01-11T10:00:14.172Z,1
2023-01-11T10:01:14.414Z,1
2023-01-11T10:02:17.311Z,1
2023-01-11T10:03:14.217Z,1
2023-01-11T10:04:14.192Z,1
2023-01-11T10:05:14.255Z,1
2023-01-11T10:06:14.236Z,1
2023-01-11T10:07:14.195Z,1
2023-01-11T10:18:22.339Z,1
2023-01-11T10:18:25.789Z,1
2023-01-11T10:18:30.651Z,1
2023-01-11T10:18:39.366Z,1
2023-01-11T10:20:14.187Z,1
2023-01-11T10:21:14.165Z,1
2023-01-11T10:22:14.191Z,2
2023-01-11T10:23:14.176Z,2
2023-01-11T10:24:14.213Z,2
2023-01-11T10:25:14.189Z,2
2023-01-11T10:26:14.206Z,1
2023-01-11T10:27:14.263Z,1
2023-01-11T10:28:14.181Z,1
2023-01-11T10:29:14.209Z,1
2023-01-11T10:30:14.185Z,1
2023-01-11T10:31:14.193Z,1
2023-01-11T10:32:14.184Z,1
2023-01-11T10:33:14.176Z,1
2023-01-11T10:34:14.175Z,1
2023-01-11T10:35:14.189Z,2
2023-01-11T10:36:14.198Z,2
2023-01-11T10:37:14.177Z,2
2023-01-11T10:38:14.177Z,3
2023-01-11T10:39:14.261Z,2
2023-01-11T10:40:14.188Z,2
2023-01-11T10:41:14.192Z,2
2023-01-11T10:42:14.180Z,2
2023-01-11T10:43:14.192Z,2
2023-01-11T10:44:14.197Z,3
2023-01-11T10:45:14.188Z,2
2023-01-11T10:46:14.184Z,3
2023-01-11T10:47:14.169Z,3
2023-01-11T10:48:14.173Z,3
2023-01-11T10:49:14.196Z,3
2023-01-11T10:50:14.174Z,3
2023-01-11T10:51:14.165Z,3
2023-01-11T10:52:14.220Z,3
2023-01-11T10:53:14.185Z,4
2023-01-11T10:54:14.564Z,4
2023-01-11T10:55:14.191Z,5
2023-01-11T10:56:14.212Z,6
2023-01-11T10:57:14.235Z,5
2023-01-11T10:58:14.183Z,4
2023-01-11T10:59:14.180Z,6
2023-01-11T11:00:14.199Z,7
2023-01-11T11:01:14.223Z,9
2023-01-11T11:02:14.269Z,7
2023-01-11T11:03:14.181Z,9
2023-01-11T11:04:14.181Z,7
2023-01-11T11:05:14.213Z,4
2023-01-11T11:06:14.173Z,5
2023-01-11T11:07:14.178Z,4
2023-01-11T11:08:14.921Z,4
2023-01-11T11:09:14.176Z,5
2023-01-11T11:10:14.219Z,4
2023-01-11T11:11:14.183Z,4
2023-01-11T11:12:14.193Z,4
2023-01-11T11:13:14.173Z,4
2023-01-11T11:14:14.187Z,4
2023-01-11T11:15:14.207Z,4
2023-01-11T11:16:14.203Z,3
2023-01-11T11:17:14.203Z,3
2023-01-11T11:18:14.190Z,4
2023-01-11T11:19:14.173Z,4
2023-01-11T11:20:14.200Z,4
2023-01-11T11:21:14.205Z,3
2023-01-11T11:22:14.189Z,4
2023-01-11T11:23:14.182Z,4
2023-01-11T11:24:14.174Z,4
2023-01-11T11:25:14.225Z,4
2023-01-11T11:26:14.190Z,3
2023-01-11T11:27:14.250Z,3
2023-01-11T11:28:14.259Z,3
2023-01-11T11:29:14.205Z,3
2023-01-11T11:30:14.190Z,4
2023-01-11T11:31:14.271Z,3
2023-01-11T11:32:14.192Z,3
2023-01-11T11:33:14.181Z,3
2023-01-11T11:34:14.174Z,3
2023-01-11T11:35:14.225Z,3
2023-01-11T11:36:14.206Z,3
2023-01-11T11:37:14.178Z,4
2023-01-11T11:38:14.177Z,3
2023-01-11T11:39:14.176Z,3
2023-01-11T11:40:14.192Z,3
2023-01-11T11:41:14.208Z,3
2023-01-11T11:42:14.184Z,3
2023-01-11T11:43:14.215Z,3
2023-01-11T11:44:14.184Z,3
2023-01-11T11:45:14.189Z,3
2023-01-11T11:46:18.851Z,3
2023-01-11T11:47:14.197Z,3
2023-01-11T11:48:14.192Z,3
2023-01-11T11:49:14.187Z,3
2023-01-11T11:50:14.226Z,3
2023-01-11T11:51:14.211Z,3
2023-01-11T11:52:14.195Z,3
2023-01-11T11:53:14.199Z,3
2023-01-11T11:54:14.192Z,3
2023-01-11T11:55:14.177Z,3
2023-01-11T11:56:14.245Z,3
2023-01-11T11:57:14.200Z,3
2023-01-11T11:58:14.175Z,3
2023-01-11T11:59:14.226Z,3
2023-01-11T12:00:24.197Z,3
2023-01-11T12:01:14.194Z,3
2023-01-11T12:02:14.223Z,3
2023-01-11T12:03:14.240Z,3
2023-01-11T12:04:14.212Z,3
2023-01-11T12:05:14.240Z,3
2023-01-11T12:06:14.211Z,3
2023-01-11T12:07:14.204Z,3
2023-01-11T12:08:14.197Z,3
2023-01-11T12:09:14.184Z,3
2023-01-11T12:10:14.186Z,3
2023-01-11T12:12:14.171Z,3
2023-01-11T12:13:14.193Z,3
2023-01-11T12:14:14.185Z,2
2023-01-11T12:15:14.193Z,3
2023-01-11T12:16:14.222Z,3
2023-01-11T12:17:14.187Z,2
2023-01-11T12:18:15.490Z,2
2023-01-11T12:19:14.194Z,3
2023-01-11T12:20:14.185Z,2
2023-01-11T12:21:14.190Z,2
2023-01-11T12:22:14.176Z,2
2023-01-11T12:23:14.189Z,2
2023-01-11T12:24:14.192Z,2
2023-01-11T12:25:14.189Z,2
2023-01-11T12:26:14.184Z,2
2023-01-11T12:27:14.226Z,2
2023-01-11T12:28:14.185Z,2
2023-01-11T12:29:14.178Z,2
2023-01-11T12:30:14.228Z,2
2023-01-11T12:31:14.290Z,2
2023-01-11T12:32:14.188Z,2
2023-01-11T12:33:14.179Z,2
2023-01-11T12:34:14.176Z,2
2023-01-11T12:35:14.176Z,2
2023-01-11T12:36:14.203Z,2
2023-01-11T12:37:14.190Z,2
2023-01-11T12:38:14.185Z,2
2023-01-11T12:39:14.193Z,2
2023-01-11T12:40:14.207Z,2
2023-01-11T12:41:14.193Z,2
2023-01-11T12:42:14.184Z,2
2023-01-11T12:43:14.188Z,2
2023-01-11T12:44:14.184Z,2
2023-01-11T12:45:14.191Z,2
2023-01-11T12:46:14.336Z,2
2023-01-11T12:47:14.410Z,2
2023-01-11T12:48:14.167Z,2
2023-01-11T12:49:14.202Z,2
2023-01-11T12:50:14.318Z,2
2023-01-11T12:51:14.205Z,2
2023-01-11T12:52:14.192Z,2
2023-01-11T12:53:14.182Z,2
2023-01-11T12:54:14.187Z,2
2023-01-11T12:55:14.189Z,2
2023-01-11T12:56:14.185Z,2
2023-01-11T12:57:14.243Z,2
2023-01-11T12:58:14.685Z,2
2023-01-11T12:59:14.230Z,2
2023-01-11T13:00:30.477Z,2
2023-01-11T13:01:14.273Z,3
2023-01-11T13:02:14.330Z,2
2023-01-11T13:03:14.211Z,2
2023-01-11T13:04:14.179Z,2
2023-01-11T13:05:14.255Z,2
2023-01-11T13:06:14.201Z,2
2023-01-11T13:07:14.209Z,3
2023-01-11T13:08:14.183Z,2
2023-01-11T13:09:16.651Z,2
2023-01-11T13:10:14.202Z,2
2023-01-11T13:11:14.186Z,2
2023-01-11T13:12:14.217Z,2
2023-01-11T13:13:14.207Z,2
2023-01-11T13:14:14.177Z,2
2023-01-11T13:15:14.214Z,3
2023-01-11T13:16:14.281Z,2
2023-01-11T13:17:14.197Z,2
2023-01-11T13:18:14.184Z,2
2023-01-11T13:19:14.193Z,2
2023-01-11T13:20:14.176Z,3
2023-01-11T13:21:14.205Z,2
2023-01-11T13:22:14.205Z,2
2023-01-11T13:23:14.224Z,2
2023-01-11T13:24:14.204Z,2
2023-01-11T13:25:14.192Z,2
2023-01-11T13:26:14.179Z,2
2023-01-11T13:27:14.366Z,2
2023-01-11T13:28:19.997Z,2
2023-01-11T13:29:14.199Z,2
2023-01-11T13:30:14.182Z,2
2023-01-11T13:31:14.225Z,2
2023-01-11T13:32:14.219Z,2
2023-01-11T13:33:14.210Z,2
2023-01-11T13:34:14.207Z,2
2023-01-11T13:35:14.187Z,2
2023-01-11T13:36:22.603Z,2
2023-01-11T13:37:14.200Z,2
2023-01-11T13:38:14.176Z,2
2023-01-11T13:39:14.203Z,2
2023-01-11T13:40:14.189Z,2
2023-01-11T13:41:14.186Z,2
2023-01-11T13:42:14.213Z,2
2023-01-11T13:43:14.189Z,2
2023-01-11T13:44:14.215Z,2
2023-01-11T13:45:14.184Z,2
2023-01-11T13:46:14.254Z,3
2023-01-11T13:47:14.316Z,2
2023-01-11T13:48:14.188Z,2
2023-01-11T13:49:14.196Z,2
2023-01-11T13:50:14.222Z,2
2023-01-11T13:51:14.197Z,2
2023-01-11T13:52:14.206Z,3
2023-01-11T13:53:14.187Z,3
2023-01-11T13:54:14.253Z,2
2023-01-11T13:55:24.447Z,3
2023-01-11T13:56:14.186Z,2
2023-01-11T13:57:14.211Z,3
2023-01-11T13:58:14.189Z,2
2023-01-11T13:59:14.194Z,2
2023-01-11T14:00:36.495Z,3
2023-01-11T14:01:14.281Z,3
2023-01-11T14:02:14.205Z,3
2023-01-11T14:03:14.231Z,3
2023-01-11T14:04:14.199Z,2
2023-01-11T14:05:14.194Z,3
2023-01-11T14:06:14.192Z,3
2023-01-11T14:07:14.209Z,3
2023-01-11T14:08:14.189Z,2
2023-01-11T14:09:14.185Z,2
2023-01-11T14:10:14.212Z,2
2023-01-11T14:11:14.186Z,3
2023-01-11T14:12:14.241Z,2
2023-01-11T14:13:14.179Z,2
2023-01-11T14:14:14.233Z,2
2023-01-11T14:15:14.254Z,2
2023-01-11T14:16:14.281Z,2
2023-01-11T14:17:14.206Z,2
2023-01-11T14:18:14.312Z,2
2023-01-11T14:19:14.194Z,2
2023-01-11T14:20:14.272Z,2
2023-01-11T14:21:14.234Z,2
2023-01-11T14:22:14.225Z,2
2023-01-11T14:23:14.233Z,2
2023-01-11T14:24:14.191Z,2
2023-01-11T14:25:14.183Z,2
2023-01-11T14:26:14.196Z,2
2023-01-11T14:27:14.240Z,2
2023-01-11T14:28:14.184Z,2
2023-01-11T14:29:14.206Z,2
2023-01-11T14:30:14.200Z,2
2023-01-11T14:31:14.357Z,3
2023-01-11T14:32:14.231Z,2
2023-01-11T14:33:14.192Z,2
2023-01-11T14:34:14.184Z,2
2023-01-11T14:35:14.177Z,2
2023-01-11T14:36:14.215Z,2
2023-01-11T14:37:14.197Z,2
2023-01-11T14:38:14.180Z,2
2023-01-11T14:39:14.186Z,2
2023-01-11T14:40:14.197Z,2
2023-01-11T14:41:14.191Z,2
2023-01-11T14:42:29.315Z,2
2023-01-11T14:43:14.192Z,2
2023-01-11T14:44:14.208Z,2
2023-01-11T14:45:14.194Z,2
2023-01-11T14:46:14.237Z,2
2023-01-11T14:47:14.208Z,2
2023-01-11T14:48:14.208Z,2
2023-01-11T14:49:14.344Z,2
2023-01-11T14:50:14.178Z,2
2023-01-11T14:51:14.215Z,2
2023-01-11T14:52:14.225Z,2
2023-01-11T14:53:14.197Z,2
2023-01-11T14:54:14.188Z,2
2023-01-11T14:55:14.192Z,2
2023-01-11T14:56:14.197Z,2
2023-01-11T14:57:14.236Z,3
2023-01-11T14:58:14.186Z,3
2023-01-11T14:59:14.210Z,2
2023-01-11T15:01:14.206Z,3
2023-01-11T15:02:14.218Z,2
2023-01-11T15:03:14.186Z,2
2023-01-11T15:04:14.247Z,3
2023-01-11T15:05:14.204Z,2
2023-01-11T15:06:14.222Z,2
2023-01-11T15:07:14.211Z,2